This is the latest recevied weather packets stored in our database for station/object DL3GCR-10. If no packets are shown the sender has not sent any weather packets the latest 1 day(s).
| Time | Temp. | Humidity | Pressure | Rain* | Wind** | Luminosity | Snow |
|---|---|---|---|---|---|---|---|
| 1788602006 | 21.67° C | 60% | 1025.5 hPa | - | - | - | - |
| 1788601105 | 21.67° C | 61% | 1025.5 hPa | - | - | - | - |
| 1788600205 | 21.11° C | 65% | 1025.6 hPa | - | - | - | - |
| 1788599305 | 20.56° C | 66% | 1025.5 hPa | - | - | - | - |
| 1788598405 | 20° C | 69% | 1025.3 hPa | - | - | - | - |
| 1788597505 | 20° C | 68% | 1025 hPa | - | - | - | - |
| 1788596605 | 20° C | 66% | 1024.7 hPa | - | - | - | - |
| 1788595704 | 19.44° C | 69% | 1024.7 hPa | - | - | - | - |
| 1788594804 | 19.44° C | 71% | 1024.6 hPa | - | - | - | - |
| 1788593904 | 19.44° C | 72% | 1024.4 hPa | - | - | - | - |
| 1788593004 | 18.89° C | 74% | 1024.4 hPa | - | - | - | - |
| 1788592104 | 18.33° C | 74% | 1024.2 hPa | - | - | - | - |
| 1788591203 | 17.78° C | 76% | 1024 hPa | - | - | - | - |
| 1788590302 | 17.22° C | 80% | 1024 hPa | - | - | - | - |
| 1788589402 | 16.67° C | 79% | 1023.9 hPa | - | - | - | - |
| 1788588502 | 16.67° C | 79% | 1023.5 hPa | - | - | - | - |
| 1788587607 | 16.67° C | 78% | 1023.3 hPa | - | - | - | - |
| 1788586706 | 16.67° C | 77% | 1023.2 hPa | - | - | - | - |
| 1788585806 | 16.11° C | 75% | 1023.1 hPa | - | - | - | - |
| 1788584906 | 16.11° C | 73% | 1022.9 hPa | - | - | - | - |
| 1788584006 | 16.67° C | 70% | 1022.6 hPa | - | - | - | - |
| 1788583106 | 17.22° C | 70% | 1022.4 hPa | - | - | - | - |
| 1788582206 | 16.67° C | 73% | 1022.3 hPa | - | - | - | - |
| 1788581305 | 16.11° C | 72% | 1022.5 hPa | - | - | - | - |
| 1788580405 | 16.11° C | 71% | 1022.4 hPa | - | - | - | - |
* Rain since midnight (hover to see other rain measurements)
** Current wind speed in m/s (hover to see current wind gust speed)